EDT,Max TemperatureF,Mean TemperatureF,Min TemperatureF,Max Dew PointF,MeanDew PointF,Min DewpointF,Max Humidity, Mean Humidity, Min Humidity, Max Sea Level PressureIn, Mean Sea Level PressureIn, Min Sea Level PressureIn, Max VisibilityMiles, Mean VisibilityMiles, Min VisibilityMiles, Max Wind SpeedMPH, Mean Wind SpeedMPH, Max Gust SpeedMPH,PrecipitationIn, CloudCover, Events, WindDirDegrees
2013-3-1,23,20,16,18,13,9,86,78,68,30.27,30.21,30.15,10,7,1,22,17,26,0.00,6,Snow,18
2013-3-2,32,20,7,23,10,3,86,77,67,30.21,30.17,29.74,10,8,2,17,11,21,0.00,5,Snow,5
2013-3-3,21,12,3,14,6,0,92,82,68,30.09,30.07,30.04,10,9,3,17,6,17,0.00,3,Snow,347
2013-3-4,25,12,1,18,8,-2,93,85,64,30.14,30.10,30.07,10,10,7,12,1,,0.00,2,Snow,31
2013-3-5,28,15,3,25,14,-1,93,79,62,30.13,30.10,30.05,10,10,10,21,6,25,0.00,4,,50
2013-3-6,28,24,18,27,23,14,100,89,74,30.27,30.18,30.09,10,6,2,14,9,,0.00,8,Snow,8
2013-3-7,24,16,9,19,14,7,93,84,59,30.40,30.32,30.25,10,9,2,12,2,,0.00,6,Snow,335
2013-3-8,35,20,4,23,15,1,93,82,56,30.42,30.35,30.25,10,9,1,17,3,23,0.00,2,,189
2013-3-9,33,28,22,32,27,21,100,93,81,30.24,30.07,29.80,10,6,1,22,11,28,0.00,5,Snow,190
2013-3-10,33,32,30,34,31,27,100,93,86,29.91,29.81,29.74,10,4,0,24,13,34,0.00,8,Fog-Snow,338
2013-3-11,31,28,24,30,27,22,100,93,86,29.83,29.63,29.50,10,2,0,28,21,37,0.01,8,Snow,21
2013-3-12,30,22,15,21,17,12,93,85,51,29.83,29.68,29.55,10,5,1,21,12,29,0.00,8,Snow,320
2013-3-13,26,19,12,18,13,7,89,76,43,30.17,30.01,29.84,10,7,1,23,15,30,0.00,4,Snow,333
2013-3-14,37,21,5,26,12,3,92,73,36,30.17,30.08,29.87,10,10,7,13,5,17,0.00,2,Snow,258
2013-3-15,33,24,14,30,19,9,89,82,68,29.96,29.90,29.84,10,8,1,24,10,30,0.00,8,Snow,345
2013-3-16,23,18,14,14,12,9,90,80,54,30.04,29.94,29.89,10,4,1,16,6,25,0.00,8,Snow,344
2013-3-17,23,14,5,9,4,0,85,72,46,30.24,30.15,30.05,10,10,2,15,9,22,0.00,4,Snow,295
2013-3-18,32,21,10,27,16,7,100,83,51,30.08,29.78,29.40,10,8,0,18,7,29,0.02,5,Snow,163
2013-3-19,27,22,18,26,18,12,96,82,64,29.77,29.51,29.37,10,5,1,26,9,43,0.00,8,Snow,282
2013-3-20,21,16,12,14,10,7,84,75,63,29.89,29.81,29.76,10,8,2,21,12,28,0.00,6,Snow,314
2013-3-21,23,18,12,17,14,9,88,80,63,29.95,29.89,29.86,10,7,2,18,12,24,0.00,7,Snow,328
2013-3-22,28,18,7,25,16,5,93,89,80,30.04,29.96,29.91,10,8,2,17,6,22,0.00,6,Snow,345
2013-3-23,30,26,23,23,21,19,86,83,74,30.11,30.07,30.03,10,10,7,15,6,,0.00,8,Snow,331
2013-3-24,30,26,23,25,21,19,93,82,69,30.09,30.01,29.90,10,10,7,20,8,26,0.00,7,Snow,2
2013-3-25,30,28,26,25,23,22,93,82,75,30.06,29.95,29.88,10,8,1,22,13,26,0.00,8,Snow,11
2013-3-26,33,30,27,30,25,-4,95,82,21,30.16,30.10,30.06,10,7,1,16,10,18,0.00,6,Snow,337
2013-3-27,39,32,24,22,20,16,81,68,41,30.22,30.18,30.14,10,10,10,21,8,25,0.00,0,,330
2013-3-28,39,30,21,21,17,14,78,64,39,30.26,30.23,30.22,10,10,10,14,5,,0.00,0,,336
2013-3-29,44,30,17,20,17,14,86,63,34,30.26,30.22,30.14,10,10,10,10,2,,0.00,0,,88
2013-3-30,39,32,24,34,26,18,100,81,62,30.13,29.94,29.71,10,6,0,23,7,28,0.00,5,Rain-Snow,207
2013-3-31,39,30,21,34,28,18,100,86,48,29.79,29.65,29.53,10,5,0,24,9,36,0.00,6,Fog-Snow,281